Time;durP1;ratioP1;P1;durP2;ratioP2;P2;SDS_P1;SDS_P2;PMS_P1;PMS_P2;Temp;Humidity;BMP_temperature;BMP_pressure;BME280_temperature;BME280_humidity;BME280_pressure;Samples;Min_cycle;Max_cycle;Signal;HPM_P1;HPM_P2
2021/10/12 00:02:00;;;;;;;7.10;2.20;;;10.20;99.90;;;;;;5109961;28;20066;-63
2021/10/12 00:04:26;;;;;;;6.53;2.40;;;10.30;99.90;;;;;;5111153;28;20043;-61
2021/10/12 00:06:53;;;;;;;8.65;2.38;;;10.30;99.90;;;;;;5109695;28;20502;-61
2021/10/12 00:09:20;;;;;;;9.25;2.53;;;10.30;99.90;;;;;;5110369;28;20051;-62
2021/10/12 00:11:46;;;;;;;10.82;2.80;;;10.30;99.90;;;;;;5110659;28;20059;-62
2021/10/12 00:14:13;;;;;;;8.32;2.65;;;10.30;99.90;;;;;;5091906;28;20082;-62
2021/10/12 00:16:39;;;;;;;7.47;3.22;;;10.30;99.90;;;;;;5092534;28;20058;-62
2021/10/12 00:19:05;;;;;;;11.73;2.85;;;10.30;99.90;;;;;;5109329;28;20498;-62
2021/10/12 00:21:32;;;;;;;8.65;2.60;;;10.30;99.90;;;;;;5110681;28;20047;-61
2021/10/12 00:23:58;;;;;;;10.02;2.70;;;10.30;99.90;;;;;;5092558;28;20066;-61
2021/10/12 00:26:25;;;;;;;10.90;2.67;;;10.20;99.90;;;;;;5111043;28;20534;-63
2021/10/12 00:28:51;;;;;;;7.25;2.47;;;10.30;99.90;;;;;;5108932;28;20047;-62
2021/10/12 00:31:17;;;;;;;8.85;2.60;;;10.30;99.90;;;;;;5110354;28;20418;-62
2021/10/12 00:33:43;;;;;;;9.10;2.50;;;10.30;99.90;;;;;;5110926;28;20039;-62
2021/10/12 00:36:10;;;;;;;7.95;2.53;;;10.30;99.90;;;;;;5110318;28;20086;-62
2021/10/12 00:38:36;;;;;;;9.35;2.63;;;10.30;99.90;;;;;;5091707;28;20056;-61
2021/10/12 00:41:06;;;;;;;7.80;2.45;;;10.30;99.90;;;;;;5109676;28;20086;-61
2021/10/12 00:43:33;;;;;;;7.85;2.30;;;10.30;99.90;;;;;;5109611;28;20471;-61
2021/10/12 00:46:00;;;;;;;8.70;2.42;;;10.30;99.90;;;;;;5110821;28;20134;-63
2021/10/12 00:48:26;;;;;;;11.25;2.67;;;10.30;99.90;;;;;;5111019;28;20468;-61
2021/10/12 00:50:53;;;;;;;8.05;2.13;;;10.30;99.90;;;;;;5109674;28;20112;-61
2021/10/12 00:53:19;;;;;;;7.28;2.20;;;10.30;99.90;;;;;;5078788;28;20400;-62
2021/10/12 00:55:46;;;;;;;10.18;2.80;;;10.40;99.90;;;;;;5092103;28;20051;-62
2021/10/12 00:58:14;;;;;;;9.05;2.33;;;10.40;99.90;;;;;;5110430;28;20089;-61
2021/10/12 01:00:41;;;;;;;11.30;2.42;;;10.40;99.90;;;;;;5108658;28;20040;-62
2021/10/12 01:03:08;;;;;;;7.95;2.30;;;10.40;99.90;;;;;;5091672;28;20667;-61
2021/10/12 01:05:35;;;;;;;10.98;3.03;;;10.40;99.90;;;;;;5108677;28;20052;-62
2021/10/12 01:08:03;;;;;;;15.27;2.47;;;10.40;99.90;;;;;;5109802;28;20134;-61
2021/10/12 01:10:29;;;;;;;11.18;2.20;;;10.40;99.90;;;;;;5108537;28;20052;-61
2021/10/12 01:12:56;;;;;;;7.30;2.78;;;10.50;99.90;;;;;;5090392;28;20438;-63
2021/10/12 01:15:23;;;;;;;8.60;2.30;;;10.40;99.90;;;;;;5109568;28;20120;-61
2021/10/12 01:17:49;;;;;;;10.95;2.60;;;10.50;99.90;;;;;;5110310;28;20054;-61
2021/10/12 01:20:15;;;;;;;10.80;2.55;;;10.50;99.90;;;;;;5109551;28;20385;-61
2021/10/12 01:22:44;;;;;;;16.75;2.85;;;10.50;99.90;;;;;;5107572;28;20059;-58
2021/10/12 01:25:12;;;;;;;12.15;2.53;;;10.60;99.90;;;;;;5109313;28;20051;-61
2021/10/12 01:27:38;;;;;;;10.35;2.70;;;10.60;99.90;;;;;;5109114;28;20504;-60
2021/10/12 01:30:07;;;;;;;10.48;2.50;;;10.60;99.90;;;;;;5108866;28;20055;-61
2021/10/12 01:32:42;;;;;;;13.82;2.85;;;10.60;99.90;;;;;;5107178;28;20124;-57
2021/10/12 01:35:27;;;;;;;12.23;2.50;;;10.50;99.90;;;;;;5109056;28;20056;-59
2021/10/12 01:37:53;;;;;;;13.35;2.38;;;10.60;99.90;;;;;;5109125;28;20055;-60
2021/10/12 01:40:19;;;;;;;12.98;3.15;;;10.50;99.90;;;;;;5108895;28;20051;-61
2021/10/12 01:42:46;;;;;;;11.52;2.60;;;10.60;99.90;;;;;;5107527;28;20121;-61
2021/10/12 01:45:13;;;;;;;11.60;2.28;;;10.60;99.90;;;;;;5109164;28;20056;-61
2021/10/12 01:47:41;;;;;;;12.55;2.78;;;10.60;99.90;;;;;;5108707;28;20051;-60
2021/10/12 01:50:10;;;;;;;14.85;2.40;;;10.60;99.90;;;;;;5109158;28;20124;-60
2021/10/12 01:52:39;;;;;;;9.37;2.10;;;10.60;99.90;;;;;;5106990;28;20082;-57
2021/10/12 01:55:07;;;;;;;10.60;2.50;;;10.70;99.90;;;;;;5092545;28;20321;-61
2021/10/12 01:57:34;;;;;;;10.25;2.47;;;10.70;99.90;;;;;;5108338;28;20063;-60
2021/10/12 02:00:00;;;;;;;16.15;2.95;;;10.70;99.90;;;;;;5107092;28;20051;-59
2021/10/12 02:02:26;;;;;;;9.15;1.80;;;10.70;99.90;;;;;;5101037;28;20051;-57
2021/10/12 02:04:52;;;;;;;11.35;2.30;;;10.70;99.90;;;;;;5089201;28;20060;-58
2021/10/12 02:07:19;;;;;;;10.32;2.15;;;10.70;99.90;;;;;;5085334;28;20052;-60
2021/10/12 02:09:45;;;;;;;12.38;2.50;;;10.70;99.90;;;;;;5108864;28;20123;-61
2021/10/12 02:12:11;;;;;;;9.85;2.58;;;10.70;99.90;;;;;;5108668;28;20093;-57
2021/10/12 02:14:37;;;;;;;13.15;3.25;;;10.70;99.90;;;;;;5089456;28;20176;-59
2021/10/12 02:17:04;;;;;;;12.73;2.55;;;10.70;99.90;;;;;;5108883;28;20217;-56
2021/10/12 02:19:30;;;;;;;14.32;2.92;;;10.70;99.90;;;;;;5108802;28;20445;-59
2021/10/12 02:21:57;;;;;;;9.20;2.05;;;10.70;99.90;;;;;;5109642;28;20059;-60
2021/10/12 02:24:23;;;;;;;10.85;2.08;;;10.70;99.90;;;;;;5090399;28;20058;-59
2021/10/12 02:26:49;;;;;;;10.73;2.60;;;10.70;99.90;;;;;;5108819;28;20055;-61
2021/10/12 02:29:16;;;;;;;12.90;2.55;;;10.70;99.90;;;;;;5108172;28;20119;-59
2021/10/12 02:31:42;;;;;;;15.88;2.30;;;10.70;99.90;;;;;;5106486;28;20079;-59
2021/10/12 02:34:09;;;;;;;14.07;2.63;;;10.70;99.90;;;;;;5109506;28;20062;-62
2021/10/12 02:36:35;;;;;;;15.82;2.17;;;10.70;99.90;;;;;;5108757;28;20052;-61
2021/10/12 02:39:02;;;;;;;16.10;3.08;;;10.80;99.90;;;;;;5108417;28;20060;-61
2021/10/12 02:41:28;;;;;;;15.02;2.75;;;10.80;99.90;;;;;;5089773;28;20067;-61
2021/10/12 02:43:54;;;;;;;16.38;2.72;;;10.80;99.90;;;;;;5108302;28;20427;-60
2021/10/12 02:46:20;;;;;;;11.80;2.58;;;10.80;99.90;;;;;;5108601;28;20055;-59
2021/10/12 02:48:48;;;;;;;14.45;2.63;;;10.80;99.90;;;;;;5108495;28;20055;-58
2021/10/12 02:51:15;;;;;;;10.75;1.95;;;10.80;99.90;;;;;;5108676;28;20039;-59
2021/10/12 02:53:41;;;;;;;14.75;3.05;;;10.70;99.90;;;;;;5108506;28;20043;-59
2021/10/12 02:56:07;;;;;;;13.45;2.42;;;10.70;99.90;;;;;;5108290;28;20051;-59
2021/10/12 02:58:33;;;;;;;12.02;3.28;;;10.70;99.90;;;;;;5108938;28;20087;-57
2021/10/12 03:00:59;;;;;;;10.30;3.33;;;10.70;99.90;;;;;;5089079;28;20067;-57
2021/10/12 03:03:25;;;;;;;9.80;2.70;;;10.60;99.90;;;;;;5107804;28;20048;-58
2021/10/12 03:05:51;;;;;;;11.30;2.30;;;10.60;99.90;;;;;;5108166;28;20059;-57
2021/10/12 03:08:17;;;;;;;10.80;2.55;;;10.60;99.90;;;;;;5107826;28;20056;-58
2021/10/12 03:10:43;;;;;;;14.05;3.05;;;10.60;99.90;;;;;;5108074;28;20574;-58
2021/10/12 03:13:09;;;;;;;12.23;3.38;;;10.60;99.90;;;;;;5106722;28;20393;-58
2021/10/12 03:15:35;;;;;;;11.25;2.50;;;10.60;99.90;;;;;;5107062;28;20051;-56
2021/10/12 03:18:01;;;;;;;16.33;2.63;;;10.60;99.90;;;;;;5107475;28;20047;-57
2021/10/12 03:20:27;;;;;;;19.35;3.00;;;10.50;99.90;;;;;;5089571;28;20104;-57
2021/10/12 03:22:53;;;;;;;14.70;2.88;;;10.60;99.90;;;;;;5106498;28;20059;-56
2021/10/12 03:25:19;;;;;;;10.73;2.83;;;10.60;99.90;;;;;;5102013;28;20052;-57
2021/10/12 03:27:45;;;;;;;11.75;2.65;;;10.60;99.90;;;;;;5107761;28;20104;-57
2021/10/12 03:30:11;;;;;;;15.48;2.80;;;10.60;99.90;;;;;;5107869;28;20086;-55
2021/10/12 03:32:37;;;;;;;12.68;2.58;;;10.60;99.90;;;;;;5088008;28;20123;-56
2021/10/12 03:35:04;;;;;;;14.80;2.40;;;10.60;99.90;;;;;;5106748;28;20085;-57
2021/10/12 03:37:30;;;;;;;10.43;2.20;;;10.60;99.90;;;;;;5107387;28;20083;-54
2021/10/12 03:39:56;;;;;;;15.88;3.20;;;10.60;99.90;;;;;;5106709;28;20087;-57
2021/10/12 03:42:22;;;;;;;13.18;2.35;;;10.70;99.90;;;;;;5107061;28;20105;-57
2021/10/12 03:44:48;;;;;;;8.82;2.10;;;10.70;99.90;;;;;;5105682;28;20056;-57
2021/10/12 03:47:14;;;;;;;6.15;1.90;;;10.70;99.90;;;;;;5106014;28;20523;-57
2021/10/12 03:49:40;;;;;;;9.30;1.67;;;10.70;99.90;;;;;;5106318;28;20047;-57
2021/10/12 03:52:06;;;;;;;10.63;2.35;;;10.70;99.90;;;;;;5107315;28;20059;-57
2021/10/12 03:54:32;;;;;;;11.85;2.28;;;10.80;99.90;;;;;;5110184;28;20134;-55
2021/10/12 03:56:58;;;;;;;9.43;2.47;;;10.80;99.90;;;;;;5109114;28;20436;-57
2021/10/12 03:59:25;;;;;;;10.50;1.98;;;10.80;99.90;;;;;;5111399;28;20052;-57
2021/10/12 04:01:51;;;;;;;10.25;2.42;;;10.80;99.90;;;;;;5111576;28;20051;-57
2021/10/12 04:04:17;;;;;;;10.63;2.58;;;10.80;99.90;;;;;;5111107;28;20129;-57
2021/10/12 04:06:43;;;;;;;10.57;2.00;;;10.80;99.90;;;;;;5110617;28;20599;-57
2021/10/12 04:09:09;;;;;;;12.77;2.47;;;10.80;99.90;;;;;;5110853;28;20055;-57
2021/10/12 04:11:35;;;;;;;8.15;2.10;;;10.80;99.90;;;;;;5111064;28;20052;-56
2021/10/12 04:14:01;;;;;;;12.07;2.78;;;10.80;99.90;;;;;;5110766;28;20051;-57
2021/10/12 04:16:27;;;;;;;9.75;2.40;;;10.80;99.90;;;;;;5109868;28;20090;-57
2021/10/12 04:18:53;;;;;;;8.80;1.90;;;10.80;99.90;;;;;;5111344;28;20052;-56
2021/10/12 04:21:19;;;;;;;9.15;1.98;;;10.80;99.90;;;;;;5092135;28;20521;-53
2021/10/12 04:23:45;;;;;;;7.75;1.92;;;10.90;99.90;;;;;;5109902;28;20052;-56
2021/10/12 04:26:14;;;;;;;12.13;2.47;;;10.90;99.90;;;;;;5110380;28;20047;-56
2021/10/12 04:28:40;;;;;;;9.80;2.42;;;10.90;99.90;;;;;;5105591;28;20135;-56
2021/10/12 04:31:06;;;;;;;8.48;2.10;;;10.90;99.90;;;;;;5110785;28;20047;-56
2021/10/12 04:33:34;;;;;;;12.20;2.58;;;10.90;99.90;;;;;;5092085;28;20043;-55
2021/10/12 04:36:00;;;;;;;11.23;2.40;;;10.90;99.90;;;;;;5109376;28;20050;-56
2021/10/12 04:38:26;;;;;;;8.75;2.38;;;10.90;99.90;;;;;;5109963;28;20055;-55
2021/10/12 04:40:52;;;;;;;8.73;2.53;;;10.90;99.90;;;;;;5109786;28;20055;-57
2021/10/12 04:43:18;;;;;;;15.85;3.67;;;10.90;99.90;;;;;;5109772;28;20079;-57
2021/10/12 04:45:44;;;;;;;13.00;2.80;;;10.90;99.90;;;;;;5091644;28;20134;-56
2021/10/12 04:48:10;;;;;;;13.70;3.15;;;10.90;99.90;;;;;;5108327;28;20131;-57
2021/10/12 04:50:36;;;;;;;8.52;2.35;;;11.00;99.90;;;;;;5110450;28;20112;-55
2021/10/12 04:53:03;;;;;;;10.38;2.63;;;10.90;99.90;;;;;;5110821;28;20078;-55
2021/10/12 04:55:30;;;;;;;14.07;2.75;;;10.90;99.90;;;;;;5109749;28;20825;-55
2021/10/12 04:57:59;;;;;;;12.38;2.83;;;10.90;99.90;;;;;;5109426;28;20051;-55
2021/10/12 05:00:28;;;;;;;16.30;3.08;;;10.90;99.90;;;;;;5073856;28;20101;-56
2021/10/12 05:02:54;;;;;;;13.02;2.60;;;10.80;99.90;;;;;;5108962;28;20055;-56
2021/10/12 05:05:20;;;;;;;13.52;3.35;;;10.80;99.90;;;;;;5108406;28;20059;-56
2021/10/12 05:07:46;;;;;;;15.77;3.05;;;10.90;99.90;;;;;;5083591;28;20059;-56
2021/10/12 05:10:12;;;;;;;13.30;2.53;;;10.90;99.90;;;;;;5108481;28;20051;-56
2021/10/12 05:12:38;;;;;;;11.10;2.90;;;10.90;99.90;;;;;;5106879;28;20539;-56
2021/10/12 05:15:05;;;;;;;11.48;2.88;;;10.90;99.90;;;;;;5105246;28;20051;-56
2021/10/12 05:17:40;;;;;;;9.98;2.60;;;10.90;99.90;;;;;;5108783;28;20098;-57
2021/10/12 05:20:07;;;;;;;11.90;3.00;;;10.90;99.90;;;;;;5110044;28;20047;-55
2021/10/12 05:22:33;;;;;;;19.30;3.95;;;10.90;99.90;;;;;;5109468;28;20062;-58
2021/10/12 05:24:59;;;;;;;10.05;2.72;;;10.90;99.90;;;;;;5109229;28;20096;-57
2021/10/12 05:27:25;;;;;;;19.80;3.72;;;10.90;99.90;;;;;;5107016;28;20055;-57
2021/10/12 05:29:51;;;;;;;11.88;3.00;;;10.90;99.90;;;;;;5107735;28;20058;-57
2021/10/12 05:32:18;;;;;;;14.68;3.15;;;10.90;99.90;;;;;;5107064;28;20492;-58
2021/10/12 05:34:44;;;;;;;16.02;3.40;;;10.90;99.90;;;;;;5108528;28;20498;-58
2021/10/12 05:37:10;;;;;;;9.80;2.88;;;10.90;99.90;;;;;;5109030;28;20104;-57
2021/10/12 05:39:36;;;;;;;12.65;3.38;;;11.00;99.90;;;;;;5109152;28;20544;-57
2021/10/12 05:42:02;;;;;;;13.50;3.65;;;11.00;99.90;;;;;;5072766;28;20079;-57
2021/10/12 05:44:28;;;;;;;14.27;3.63;;;11.00;99.90;;;;;;5108850;28;20094;-56
2021/10/12 05:46:54;;;;;;;13.13;3.30;;;11.00;99.90;;;;;;5108286;28;20063;-57
2021/10/12 05:49:20;;;;;;;12.93;3.38;;;11.00;99.90;;;;;;5108949;28;20056;-57
2021/10/12 05:51:47;;;;;;;12.30;3.50;;;11.00;99.90;;;;;;5108615;28;20043;-57
2021/10/12 05:54:17;;;;;;;16.30;4.05;;;11.00;99.90;;;;;;5108707;28;20052;-56
2021/10/12 05:57:05;;;;;;;11.68;3.55;;;11.00;99.90;;;;;;5108831;28;20048;-57
2021/10/12 05:59:32;;;;;;;14.35;3.30;;;11.00;99.90;;;;;;5097483;28;20054;-57
2021/10/12 06:01:59;;;;;;;10.93;3.17;;;11.00;99.90;;;;;;5108084;28;20070;-57
2021/10/12 06:04:25;;;;;;;11.50;3.10;;;11.00;99.90;;;;;;5108009;28;20504;-57
2021/10/12 06:06:54;;;;;;;9.50;2.97;;;11.00;99.90;;;;;;5090394;28;20071;-56
2021/10/12 06:09:20;;;;;;;10.45;3.20;;;11.10;99.90;;;;;;5108924;28;20055;-57
2021/10/12 06:11:46;;;;;;;10.65;3.15;;;11.10;99.90;;;;;;5108580;28;20822;-57
2021/10/12 06:14:14;;;;;;;13.35;3.08;;;11.10;99.90;;;;;;5108977;28;20048;-57
2021/10/12 06:16:40;;;;;;;13.18;3.55;;;11.10;99.90;;;;;;5107624;28;20088;-57
2021/10/12 06:19:06;;;;;;;11.45;3.80;;;11.10;99.90;;;;;;5108617;28;20063;-55
2021/10/12 06:21:32;;;;;;;12.23;4.00;;;11.10;99.90;;;;;;5108443;28;20522;-56
2021/10/12 06:23:58;;;;;;;12.93;3.63;;;11.10;99.90;;;;;;5108856;28;20059;-56
2021/10/12 06:26:24;;;;;;;12.70;4.32;;;11.10;99.90;;;;;;5108192;28;20058;-57
2021/10/12 06:28:50;;;;;;;13.07;4.10;;;11.10;99.90;;;;;;5107249;28;20101;-56
2021/10/12 06:31:16;;;;;;;15.23;4.25;;;11.10;99.90;;;;;;5103292;28;20381;-57
2021/10/12 06:33:43;;;;;;;13.95;5.43;;;11.10;99.90;;;;;;5084139;28;20464;-57
2021/10/12 06:36:08;;;;;;;14.27;5.03;;;11.20;99.90;;;;;;5100503;28;20108;-57
2021/10/12 06:38:35;;;;;;;13.98;5.05;;;11.20;99.90;;;;;;5095621;28;20056;-55
2021/10/12 06:41:01;;;;;;;12.68;4.80;;;11.20;99.90;;;;;;5100592;28;20134;-55
2021/10/12 06:43:27;;;;;;;12.73;5.13;;;11.20;99.90;;;;;;5101093;28;20525;-54
2021/10/12 06:45:55;;;;;;;11.88;5.70;;;11.20;99.90;;;;;;5101399;28;20043;-56
2021/10/12 06:48:24;;;;;;;13.90;4.65;;;11.20;99.90;;;;;;5087655;28;20056;-56
2021/10/12 06:50:50;;;;;;;12.98;5.00;;;11.20;99.90;;;;;;5093671;28;20097;-56
2021/10/12 06:53:16;;;;;;;10.75;4.65;;;11.30;99.90;;;;;;5092582;28;20197;-57
2021/10/12 06:55:45;;;;;;;8.38;4.00;;;11.30;99.90;;;;;;5080166;28;20547;-56
2021/10/12 06:58:11;;;;;;;11.55;4.80;;;11.30;99.90;;;;;;5104593;28;20218;-57
2021/10/12 07:00:37;;;;;;;16.13;5.25;;;11.30;99.90;;;;;;5097764;28;20522;-56
2021/10/12 07:03:03;;;;;;;12.68;5.05;;;11.30;99.90;;;;;;5089794;28;20062;-57
2021/10/12 07:05:29;;;;;;;17.77;4.60;;;11.30;99.90;;;;;;5089064;28;20782;-55
2021/10/12 07:07:58;;;;;;;10.88;4.05;;;11.40;99.90;;;;;;5087032;28;20067;-57
2021/10/12 07:10:25;;;;;;;16.23;4.32;;;11.40;99.90;;;;;;5073302;28;20044;-56
2021/10/12 07:12:52;;;;;;;11.80;4.45;;;11.50;99.90;;;;;;5088537;28;20055;-57
2021/10/12 07:15:22;;;;;;;10.70;3.92;;;11.50;99.90;;;;;;5105340;28;20124;-57
2021/10/12 07:17:48;;;;;;;15.98;4.68;;;11.50;99.90;;;;;;5107456;28;20094;-57
2021/10/12 07:20:17;;;;;;;13.77;4.85;;;11.40;99.90;;;;;;5107380;28;20223;-58
2021/10/12 07:22:43;;;;;;;13.82;4.63;;;11.50;99.90;;;;;;5106482;28;20115;-58
2021/10/12 07:25:09;;;;;;;14.75;5.40;;;11.50;99.90;;;;;;5089493;28;20456;-57
2021/10/12 07:27:36;;;;;;;14.02;5.72;;;11.50;99.90;;;;;;5108765;28;20059;-57
2021/10/12 07:30:05;;;;;;;12.82;6.15;;;11.50;99.90;;;;;;5108241;28;20051;-57
2021/10/12 07:32:31;;;;;;;12.02;6.07;;;11.50;99.90;;;;;;5111123;28;20446;-56
2021/10/12 07:35:00;;;;;;;16.02;6.22;;;11.50;99.90;;;;;;5103419;28;20055;-57
2021/10/12 07:37:27;;;;;;;11.32;6.30;;;11.50;99.90;;;;;;5109299;28;20047;-57
2021/10/12 07:39:53;;;;;;;8.75;5.50;;;11.50;99.90;;;;;;5091276;28;20039;-59
2021/10/12 07:42:19;;;;;;;11.30;5.43;;;11.60;99.90;;;;;;5110877;28;20055;-61
2021/10/12 07:44:45;;;;;;;10.50;5.53;;;11.60;99.90;;;;;;5103048;28;20048;-60
2021/10/12 07:47:15;;;;;;;6.47;2.42;;;11.60;99.90;;;;;;5111175;28;20068;-58
2021/10/12 07:49:49;;;;;;;9.68;3.05;;;11.50;99.90;;;;;;5099981;28;20116;-57
2021/10/12 07:52:21;;;;;;;4.85;2.22;;;11.50;99.90;;;;;;5104662;28;20096;-58
2021/10/12 07:54:51;;;;;;;6.90;2.42;;;11.50;99.90;;;;;;5111080;28;20051;-57
2021/10/12 07:57:29;;;;;;;7.30;2.72;;;11.50;99.90;;;;;;5110088;28;20046;-57
2021/10/12 07:59:56;;;;;;;5.35;1.45;;;11.50;99.90;;;;;;5093510;28;20108;-55
2021/10/12 08:02:26;;;;;;;4.43;1.40;;;11.40;99.90;;;;;;5111535;28;20040;-57
2021/10/12 08:04:57;;;;;;;5.45;1.13;;;11.40;99.90;;;;;;5077007;28;20411;-56
2021/10/12 08:07:38;;;;;;;5.72;1.40;;;11.50;99.90;;;;;;5089166;28;20165;-58
2021/10/12 08:10:08;;;;;;;8.13;3.47;;;11.50;99.90;;;;;;5073764;28;20048;-57
2021/10/12 08:12:50;;;;;;;6.95;1.52;;;11.50;99.90;;;;;;5089709;28;20102;-58
2021/10/12 08:15:20;;;;;;;5.88;1.20;;;11.50;99.90;;;;;;5091044;28;20056;-57
2021/10/12 08:17:49;;;;;;;27.75;18.90;;;11.50;99.90;;;;;;5087371;28;20155;-56
2021/10/12 08:20:19;;;;;;;5.97;1.88;;;11.60;99.90;;;;;;5089136;28;20570;-56
2021/10/12 08:22:45;;;;;;;7.00;1.55;;;11.70;99.90;;;;;;5090666;28;20052;-55
2021/10/12 08:25:12;;;;;;;6.18;1.20;;;11.70;99.90;;;;;;5090658;28;20075;-55
2021/10/12 08:27:41;;;;;;;4.40;1.33;;;11.70;99.90;;;;;;5090236;28;20704;-55
2021/10/12 08:30:10;;;;;;;9.45;1.33;;;11.80;99.90;;;;;;5091174;28;20051;-56
2021/10/12 08:32:38;;;;;;;7.90;1.60;;;11.80;99.90;;;;;;5089795;28;20048;-56
2021/10/12 08:35:08;;;;;;;4.72;1.38;;;11.90;99.90;;;;;;5090464;28;20056;-55
2021/10/12 08:37:38;;;;;;;7.50;1.17;;;12.00;99.90;;;;;;5090549;28;20048;-56
2021/10/12 08:40:13;;;;;;;10.35;1.67;;;12.10;99.90;;;;;;5068722;28;20060;-57
2021/10/12 08:42:44;;;;;;;8.73;1.27;;;12.30;99.90;;;;;;5082282;28;20063;-56
2021/10/12 08:45:11;;;;;;;6.50;1.30;;;12.50;99.90;;;;;;5090443;28;20415;-56
2021/10/12 08:47:37;;;;;;;6.70;1.67;;;12.90;99.90;;;;;;5088476;28;20067;-51
2021/10/12 08:50:16;;;;;;;9.47;1.73;;;13.70;99.90;;;;;;5088661;28;20060;-51
2021/10/12 08:52:44;;;;;;;8.77;1.30;;;13.90;99.90;;;;;;5090267;28;20079;-54
2021/10/12 08:55:14;;;;;;;7.20;1.13;;;14.30;99.90;;;;;;5088350;28;20063;-54
2021/10/12 08:57:45;;;;;;;7.57;1.40;;;14.50;99.90;;;;;;5090045;28;20488;-54
2021/10/12 09:00:14;;;;;;;6.53;1.77;;;14.50;99.90;;;;;;5088342;28;20064;-55
2021/10/12 09:03:26;;;;;;;3.60;0.98;;;14.40;99.90;;;;;;5095249;28;20314;-53
2021/10/12 09:06:00;;;;;;;9.60;1.65;;;14.10;99.90;;;;;;5085618;28;20194;-52
2021/10/12 09:08:35;;;;;;;8.73;1.27;;;14.50;99.90;;;;;;5087791;28;20051;-54
2021/10/12 09:11:04;;;;;;;11.13;1.60;;;15.00;99.90;;;;;;5089266;28;20047;-53
2021/10/12 09:13:43;;;;;;;6.97;1.17;;;15.80;99.90;;;;;;5088992;28;20084;-52
2021/10/12 09:16:16;;;;;;;8.48;1.60;;;16.30;99.90;;;;;;5083659;28;20056;-55
2021/10/12 09:18:55;;;;;;;6.30;1.10;;;17.00;99.90;;;;;;5084194;28;20047;-51
2021/10/12 09:21:25;;;;;;;;;;;17.50;99.90;;;;;;5084677;28;20056;-54
2021/10/12 09:24:19;;;;;;;5.78;1.73;;;17.80;99.90;;;;;;5076206;28;20014;-56
2021/10/12 09:26:49;;;;;;;8.02;1.52;;;18.40;99.90;;;;;;5080559;28;20127;-55
2021/10/12 09:29:36;;;;;;;10.23;1.40;;;18.90;99.90;;;;;;5088469;28;20056;-55
2021/10/12 09:32:05;;;;;;;7.38;1.98;;;19.20;99.90;;;;;;5087202;28;20048;-54
2021/10/12 09:34:34;;;;;;;6.60;1.65;;;19.40;99.90;;;;;;5089710;28;20051;-55
2021/10/12 09:37:02;;;;;;;5.93;1.83;;;19.90;99.90;;;;;;5088721;28;20052;-54
2021/10/12 09:39:32;;;;;;;5.55;1.25;;;20.00;99.90;;;;;;5082005;28;20143;-53
2021/10/12 09:42:01;;;;;;;7.93;1.60;;;20.00;99.90;;;;;;5089254;28;20150;-55
2021/10/12 09:44:33;;;;;;;5.03;1.13;;;20.10;99.90;;;;;;5089062;28;20138;-56
2021/10/12 09:47:07;;;;;;;6.88;1.73;;;20.10;99.90;;;;;;5088481;28;20052;-56
2021/10/12 09:49:36;;;;;;;8.20;1.58;;;20.00;98.10;;;;;;5088955;28;20044;-56
2021/10/12 09:52:06;;;;;;;8.15;1.23;;;20.10;99.90;;;;;;5086738;28;20040;-56
2021/10/12 09:54:37;;;;;;;5.15;1.70;;;19.40;99.30;;;;;;5087994;28;20522;-56
2021/10/12 09:57:06;;;;;;;6.00;1.50;;;20.00;99.90;;;;;;5075672;28;20082;-57
2021/10/12 09:59:38;;;;;;;6.55;1.60;;;19.80;91.10;;;;;;5085777;28;20102;-57
2021/10/12 10:02:15;;;;;;;7.32;1.15;;;19.80;99.90;;;;;;5088592;28;20123;-57
2021/10/12 10:04:47;;;;;;;6.65;1.70;;;19.80;99.90;;;;;;5071264;28;20090;-57
2021/10/12 10:07:35;;;;;;;7.00;2.60;;;19.70;99.90;;;;;;5091495;28;20468;-56
2021/10/12 10:10:05;;;;;;;5.93;1.25;;;19.90;91.90;;;;;;5093563;28;20717;-57
2021/10/12 10:12:33;;;;;;;6.03;1.60;;;20.20;94.20;;;;;;5099222;28;20087;-56
2021/10/12 10:15:04;;;;;;;5.72;1.30;;;19.60;93.60;;;;;;5103395;28;20131;-57
2021/10/12 10:17:37;;;;;;;8.65;1.92;;;19.00;86.00;;;;;;5090808;28;20051;-56
2021/10/12 10:20:14;;;;;;;3.65;0.90;;;17.90;93.90;;;;;;5107544;28;20456;-56
2021/10/12 10:25:38;;;;;;;5.25;1.42;;;16.60;99.90;;;;;;5088710;28;20071;-55
2021/10/12 10:28:29;;;;;;;;;;;17.00;99.20;;;;;;5100893;28;20052;-55
2021/10/12 10:31:02;;;;;;;5.40;1.10;;;17.20;94.00;;;;;;5106440;28;19928;-56
2021/10/12 10:33:35;;;;;;;4.25;1.00;;;17.30;99.60;;;;;;5101719;28;20052;-56
2021/10/12 10:36:11;;;;;;;7.43;1.17;;;17.40;98.80;;;;;;5102856;28;20048;-56
2021/10/12 10:38:46;;;;;;;11.57;6.72;;;17.50;96.60;;;;;;5106930;28;20155;-57
2021/10/12 10:41:25;;;;;;;5.45;1.40;;;18.60;92.00;;;;;;5108131;28;20055;-56
2021/10/12 10:44:04;;;;;;;4.22;0.77;;;18.90;82.30;;;;;;5107861;28;20566;-54
2021/10/12 10:46:37;;;;;;;5.60;0.95;;;19.20;75.40;;;;;;5106277;28;20122;-56
2021/10/12 10:49:23;;;;;;;12.10;4.80;;;18.70;79.20;;;;;;5098339;28;20056;-54
2021/10/12 10:52:05;;;;;;;5.45;1.63;;;18.30;73.90;;;;;;5100185;28;20094;-56
2021/10/12 10:54:42;;;;;;;6.45;1.00;;;18.40;71.30;;;;;;5107606;28;20486;-56
2021/10/12 10:57:39;;;;;;;5.88;1.17;;;18.10;71.60;;;;;;5108843;28;20450;-56
2021/10/12 11:00:15;;;;;;;4.70;1.50;;;18.60;64.40;;;;;;5108364;28;20134;-56
2021/10/12 11:02:45;;;;;;;4.82;1.20;;;19.00;63.00;;;;;;5107898;28;20559;-56
2021/10/12 11:05:30;;;;;;;3.90;1.40;;;19.00;67.10;;;;;;5109029;28;20047;-56
2021/10/12 11:08:30;;;;;;;7.00;0.80;;;19.70;59.50;;;;;;5107568;28;20052;-56
2021/10/12 11:11:02;;;;;;;5.03;1.52;;;20.10;57.90;;;;;;5089260;28;20051;-56
2021/10/12 11:13:34;;;;;;;1.75;0.73;;;20.20;57.70;;;;;;5108117;28;20052;-56
2021/10/12 11:16:05;;;;;;;6.32;1.00;;;20.20;59.20;;;;;;5104634;28;20416;-57
2021/10/12 11:18:37;;;;;;;3.22;0.88;;;20.90;58.90;;;;;;5108545;28;20112;-56
2021/10/12 11:21:16;;;;;;;7.50;3.85;;;21.00;56.10;;;;;;5108032;28;20074;-56
2021/10/12 11:23:54;;;;;;;6.43;2.70;;;21.70;54.10;;;;;;5108030;28;20048;-56
2021/10/12 11:26:30;;;;;;;6.55;1.73;;;21.90;54.40;;;;;;5107811;28;20059;-57
2021/10/12 11:29:06;;;;;;;6.80;1.40;;;22.00;54.60;;;;;;5101874;28;20165;-57
2021/10/12 11:31:38;;;;;;;7.07;2.50;;;21.60;52.40;;;;;;5089065;28;20055;-56
2021/10/12 11:34:08;;;;;;;6.15;1.98;;;21.60;56.50;;;;;;5073543;28;20056;-56
2021/10/12 11:36:34;;;;;;;4.65;2.28;;;21.50;55.60;;;;;;5108268;28;20081;-56
2021/10/12 11:39:08;;;;;;;6.20;2.47;;;21.30;55.80;;;;;;5108187;28;20134;-56
2021/10/12 11:41:38;;;;;;;4.95;1.25;;;21.00;53.00;;;;;;5108399;28;20462;-56
2021/10/12 11:44:16;;;;;;;3.42;1.00;;;21.00;54.30;;;;;;5108219;28;20405;-56
2021/10/12 11:46:51;;;;;;;5.53;1.10;;;21.50;50.60;;;;;;5104923;28;20056;-54
2021/10/12 11:49:23;;;;;;;8.13;1.45;;;21.50;50.90;;;;;;5090363;28;20453;-56
2021/10/12 11:51:54;;;;;;;2.85;0.80;;;21.30;54.10;;;;;;5108098;28;20060;-55
2021/10/12 11:54:32;;;;;;;4.38;0.98;;;21.70;53.20;;;;;;5108250;28;20052;-55
2021/10/12 11:57:02;;;;;;;9.02;3.88;;;22.10;51.90;;;;;;5089949;28;20125;-56
2021/10/12 11:59:46;;;;;;;4.68;1.05;;;23.00;53.40;;;;;;5107953;28;20059;-57
2021/10/12 12:02:21;;;;;;;3.00;0.98;;;23.50;50.00;;;;;;5106505;28;20055;-57
2021/10/12 12:04:59;;;;;;;5.72;1.33;;;22.40;50.80;;;;;;5070311;28;20048;-56
2021/10/12 12:07:30;;;;;;;4.55;3.00;;;21.80;53.00;;;;;;5098938;28;20135;-56
2021/10/12 12:10:01;;;;;;;7.63;4.07;;;20.40;54.30;;;;;;5107645;28;20060;-56
2021/10/12 12:12:30;;;;;;;6.50;1.63;;;19.20;56.30;;;;;;5109009;28;20793;-56
2021/10/12 12:14:59;;;;;;;3.42;0.98;;;18.30;58.60;;;;;;5111060;28;20047;-56
2021/10/12 12:17:28;;;;;;;5.22;1.30;;;17.50;59.60;;;;;;5111027;28;20051;-55
2021/10/12 12:20:08;;;;;;;3.47;0.77;;;17.10;61.60;;;;;;5112590;28;20051;-56
2021/10/12 12:22:46;;;;;;;3.95;0.90;;;17.00;64.00;;;;;;5110917;28;20127;-54
2021/10/12 12:25:24;;;;;;;4.93;1.20;;;18.00;64.50;;;;;;5111629;28;20051;-55
2021/10/12 12:27:55;;;;;;;3.67;1.15;;;19.40;61.80;;;;;;5111007;28;20156;-56
2021/10/12 12:30:55;;;;;;;5.53;1.38;;;20.30;57.80;;;;;;5100755;28;20172;-56
2021/10/12 12:33:39;;;;;;;3.83;1.48;;;21.10;54.80;;;;;;5060591;28;20304;-56
2021/10/12 12:36:11;;;;;;;4.00;1.20;;;22.00;54.80;;;;;;5047442;28;20053;-56
2021/10/12 12:38:37;;;;;;;5.28;1.35;;;22.20;50.90;;;;;;5048626;28;20068;-56
2021/10/12 12:41:21;;;;;;;6.78;3.00;;;22.60;51.10;;;;;;5066996;28;20056;-57
2021/10/12 12:43:55;;;;;;;4.85;1.73;;;22.90;49.10;;;;;;5066818;28;20056;-52
2021/10/12 12:46:23;;;;;;;9.07;5.15;;;22.30;51.50;;;;;;5064527;28;20056;-50
2021/10/12 12:49:08;;;;;;;23.15;19.75;;;22.40;52.20;;;;;;5067226;28;20060;-57
2021/10/12 12:51:45;;;;;;;27.60;20.92;;;21.30;54.60;;;;;;5066642;28;20053;-59
2021/10/12 12:54:34;;;;;;;14.07;11.18;;;20.20;59.00;;;;;;5065673;28;20048;-58
2021/10/12 12:57:10;;;;;;;8.13;1.90;;;19.10;61.60;;;;;;5065314;28;20068;-57
2021/10/12 12:59:39;;;;;;;16.35;12.90;;;18.40;64.90;;;;;;5066552;28;20068;-57